sensor_id;sensor_type;location;lat;lon;timestamp;temperature;humidity
29007;DHT22;16104;48.642;9.008;2022-09-03T01:07:37;20.20;49.40
29007;DHT22;16104;48.642;9.008;2022-09-03T01:12:55;20.20;49.30
29007;DHT22;16104;48.642;9.008;2022-09-03T02:03:43;20.10;50.00
29007;DHT22;16104;48.642;9.008;2022-09-03T02:08:39;20.10;50.90
29007;DHT22;16104;48.642;9.008;2022-09-03T02:13:44;20.10;50.20
29007;DHT22;16104;48.642;9.008;2022-09-03T03:04:56;20.00;51.30
29007;DHT22;16104;48.642;9.008;2022-09-03T03:09:52;20.00;51.50
29007;DHT22;16104;48.642;9.008;2022-09-03T03:14:47;20.00;51.20
29007;DHT22;16104;48.642;9.008;2022-09-03T03:19:43;19.90;51.20
29007;DHT22;16104;48.642;9.008;2022-09-03T03:24:38;19.90;51.60
29007;DHT22;16104;48.642;9.008;2022-09-03T03:29:34;19.90;51.90
29007;DHT22;16104;48.642;9.008;2022-09-03T03:34:30;19.80;51.90
29007;DHT22;16104;48.642;9.008;2022-09-03T03:39:25;19.80;52.00
29007;DHT22;16104;48.642;9.008;2022-09-03T03:44:21;19.70;52.50
29007;DHT22;16104;48.642;9.008;2022-09-03T03:49:16;19.70;52.60
29007;DHT22;16104;48.642;9.008;2022-09-03T03:54:12;19.70;53.10
29007;DHT22;16104;48.642;9.008;2022-09-03T03:59:07;19.60;53.10
29007;DHT22;16104;48.642;9.008;2022-09-03T04:04:03;19.70;53.30
29007;DHT22;16104;48.642;9.008;2022-09-03T04:08:59;19.70;53.60
29007;DHT22;16104;48.642;9.008;2022-09-03T04:13:55;19.70;53.60
29007;DHT22;16104;48.642;9.008;2022-09-03T04:18:52;19.70;54.00
29007;DHT22;16104;48.642;9.008;2022-09-03T04:23:49;19.70;53.90
29007;DHT22;16104;48.642;9.008;2022-09-03T04:28:45;19.70;54.30
29007;DHT22;16104;48.642;9.008;2022-09-03T04:33:41;19.70;54.60
29007;DHT22;16104;48.642;9.008;2022-09-03T04:38:39;19.70;54.90
29007;DHT22;16104;48.642;9.008;2022-09-03T04:43:35;19.70;55.20
29007;DHT22;16104;48.642;9.008;2022-09-03T04:48:32;19.70;54.90
29007;DHT22;16104;48.642;9.008;2022-09-03T04:53:28;19.70;55.30
29007;DHT22;16104;48.642;9.008;2022-09-03T04:58:23;19.70;55.40
29007;DHT22;16104;48.642;9.008;2022-09-03T05:03:19;19.70;55.30
29007;DHT22;16104;48.642;9.008;2022-09-03T05:08:16;19.80;55.70
29007;DHT22;16104;48.642;9.008;2022-09-03T05:13:12;19.80;55.50
29007;DHT22;16104;48.642;9.008;2022-09-03T05:18:07;19.80;55.60
29007;DHT22;16104;48.642;9.008;2022-09-03T05:23:03;19.80;55.90
29007;DHT22;16104;48.642;9.008;2022-09-03T05:27:59;19.90;56.00
29007;DHT22;16104;48.642;9.008;2022-09-03T05:32:55;19.90;55.90
29007;DHT22;16104;48.642;9.008;2022-09-03T05:37:53;19.90;56.10
29007;DHT22;16104;48.642;9.008;2022-09-03T05:42:54;19.90;56.50
29007;DHT22;16104;48.642;9.008;2022-09-03T05:47:51;19.90;56.60
29007;DHT22;16104;48.642;9.008;2022-09-03T05:52:47;19.90;56.50
29007;DHT22;16104;48.642;9.008;2022-09-03T05:57:43;20.00;56.80
29007;DHT22;16104;48.642;9.008;2022-09-03T06:02:40;20.00;56.80
29007;DHT22;16104;48.642;9.008;2022-09-03T06:07:36;20.00;57.00
29007;DHT22;16104;48.642;9.008;2022-09-03T06:12:31;20.10;57.10
29007;DHT22;16104;48.642;9.008;2022-09-03T06:17:27;20.10;57.10
29007;DHT22;16104;48.642;9.008;2022-09-03T06:22:22;20.10;57.20
29007;DHT22;16104;48.642;9.008;2022-09-03T06:27:22;20.10;57.10
29007;DHT22;16104;48.642;9.008;2022-09-03T06:32:18;20.20;57.20
29007;DHT22;16104;48.642;9.008;2022-09-03T06:37:14;20.20;57.40
29007;DHT22;16104;48.642;9.008;2022-09-03T06:42:09;20.20;57.30
29007;DHT22;16104;48.642;9.008;2022-09-03T06:47:05;20.30;57.50
29007;DHT22;16104;48.642;9.008;2022-09-03T06:52:00;20.40;57.60
29007;DHT22;16104;48.642;9.008;2022-09-03T06:56:56;20.40;57.50
29007;DHT22;16104;48.642;9.008;2022-09-03T07:01:52;20.50;57.40
29007;DHT22;16104;48.642;9.008;2022-09-03T07:06:49;20.50;57.50
29007;DHT22;16104;48.642;9.008;2022-09-03T07:11:45;20.60;57.60
29007;DHT22;16104;48.642;9.008;2022-09-03T07:16:44;20.70;57.40
29007;DHT22;16104;48.642;9.008;2022-09-03T07:21:41;20.70;57.40
29007;DHT22;16104;48.642;9.008;2022-09-03T07:26:38;20.80;57.70
29007;DHT22;16104;48.642;9.008;2022-09-03T07:31:37;20.90;57.60
29007;DHT22;16104;48.642;9.008;2022-09-03T07:36:44;21.00;57.50
29007;DHT22;16104;48.642;9.008;2022-09-03T07:41:41;21.10;57.60
29007;DHT22;16104;48.642;9.008;2022-09-03T07:46:43;21.20;57.00
29007;DHT22;16104;48.642;9.008;2022-09-03T07:51:40;21.30;57.00
29007;DHT22;16104;48.642;9.008;2022-09-03T07:56:37;21.40;56.80
29007;DHT22;16104;48.642;9.008;2022-09-03T08:01:34;21.60;57.00
29007;DHT22;16104;48.642;9.008;2022-09-03T08:06:30;21.70;56.70
29007;DHT22;16104;48.642;9.008;2022-09-03T08:11:26;21.90;56.40
29007;DHT22;16104;48.642;9.008;2022-09-03T08:16:22;22.00;56.30
29007;DHT22;16104;48.642;9.008;2022-09-03T08:21:19;22.20;55.90
29007;DHT22;16104;48.642;9.008;2022-09-03T08:26:18;22.40;55.80
29007;DHT22;16104;48.642;9.008;2022-09-03T08:31:15;22.60;55.50
29007;DHT22;16104;48.642;9.008;2022-09-03T08:36:31;22.70;55.10
29007;DHT22;16104;48.642;9.008;2022-09-03T08:46:46;23.00;54.40
29007;DHT22;16104;48.642;9.008;2022-09-03T08:51:46;23.20;54.20
29007;DHT22;16104;48.642;9.008;2022-09-03T08:56:43;23.40;54.00
29007;DHT22;16104;48.642;9.008;2022-09-03T09:07:03;23.70;53.30
29007;DHT22;16104;48.642;9.008;2022-09-03T09:22:39;24.10;52.40
29007;DHT22;16104;48.642;9.008;2022-09-03T09:27:35;24.20;51.90
29007;DHT22;16104;48.642;9.008;2022-09-03T09:32:30;24.30;52.00
29007;DHT22;16104;48.642;9.008;2022-09-03T09:37:31;24.40;51.90
29007;DHT22;16104;48.642;9.008;2022-09-03T09:42:27;24.50;51.70
29007;DHT22;16104;48.642;9.008;2022-09-03T09:47:28;24.60;51.80
29007;DHT22;16104;48.642;9.008;2022-09-03T09:52:28;24.80;51.40
29007;DHT22;16104;48.642;9.008;2022-09-03T09:57:25;24.90;51.20
29007;DHT22;16104;48.642;9.008;2022-09-03T10:02:26;25.10;51.10
29007;DHT22;16104;48.642;9.008;2022-09-03T10:07:28;25.20;50.20
29007;DHT22;16104;48.642;9.008;2022-09-03T10:12:45;25.30;50.30
29007;DHT22;16104;48.642;9.008;2022-09-03T10:18:06;25.40;50.60
29007;DHT22;16104;48.642;9.008;2022-09-03T10:28:05;25.90;50.80
29007;DHT22;16104;48.642;9.008;2022-09-03T10:33:15;26.10;49.40
29007;DHT22;16104;48.642;9.008;2022-09-03T10:38:29;26.20;49.30
29007;DHT22;16104;48.642;9.008;2022-09-03T10:49:03;26.50;48.00
29007;DHT22;16104;48.642;9.008;2022-09-03T10:54:33;26.70;48.60
29007;DHT22;16104;48.642;9.008;2022-09-03T11:00:00;26.80;48.40
29007;DHT22;16104;48.642;9.008;2022-09-03T11:05:16;26.80;46.80
29007;DHT22;16104;48.642;9.008;2022-09-03T11:10:24;26.90;47.00
29007;DHT22;16104;48.642;9.008;2022-09-03T11:15:28;26.90;46.20
29007;DHT22;16104;48.642;9.008;2022-09-03T11:20:26;26.80;46.40
29007;DHT22;16104;48.642;9.008;2022-09-03T11:25:30;26.80;46.80
29007;DHT22;16104;48.642;9.008;2022-09-03T11:35:41;26.60;46.50
29007;DHT22;16104;48.642;9.008;2022-09-03T11:40:39;26.50;46.80
29007;DHT22;16104;48.642;9.008;2022-09-03T11:45:37;26.30;47.80
29007;DHT22;16104;48.642;9.008;2022-09-03T11:50:33;26.20;48.50
29007;DHT22;16104;48.642;9.008;2022-09-03T11:55:31;26.00;49.30
29007;DHT22;16104;48.642;9.008;2022-09-03T12:00:28;25.70;49.70
29007;DHT22;16104;48.642;9.008;2022-09-03T12:05:47;25.40;48.20
29007;DHT22;16104;48.642;9.008;2022-09-03T12:10:47;24.90;48.90
29007;DHT22;16104;48.642;9.008;2022-09-03T12:16:26;24.40;48.80
29007;DHT22;16104;48.642;9.008;2022-09-03T12:21:25;23.90;49.80
29007;DHT22;16104;48.642;9.008;2022-09-03T12:26:25;23.50;50.10
29007;DHT22;16104;48.642;9.008;2022-09-03T12:31:26;23.10;50.70
29007;DHT22;16104;48.642;9.008;2022-09-03T12:36:46;22.80;51.70
29007;DHT22;16104;48.642;9.008;2022-09-03T12:47:36;22.40;52.50
29007;DHT22;16104;48.642;9.008;2022-09-03T12:52:51;22.20;53.90
29007;DHT22;16104;48.642;9.008;2022-09-03T12:58:40;22.10;54.40
29007;DHT22;16104;48.642;9.008;2022-09-03T13:03:29;22.00;54.80
29007;DHT22;16104;48.642;9.008;2022-09-03T13:08:31;21.90;55.10
29007;DHT22;16104;48.642;9.008;2022-09-03T13:13:35;21.90;56.60
29007;DHT22;16104;48.642;9.008;2022-09-03T13:24:18;22.10;58.40
29007;DHT22;16104;48.642;9.008;2022-09-03T13:29:16;22.40;59.40
29007;DHT22;16104;48.642;9.008;2022-09-03T13:34:19;22.80;58.20
29007;DHT22;16104;48.642;9.008;2022-09-03T13:39:45;23.10;58.20
29007;DHT22;16104;48.642;9.008;2022-09-03T13:44:50;23.30;58.00
29007;DHT22;16104;48.642;9.008;2022-09-03T13:50:10;23.40;56.80
29007;DHT22;16104;48.642;9.008;2022-09-03T13:55:26;23.50;56.00
29007;DHT22;16104;48.642;9.008;2022-09-03T14:00:30;23.50;56.90
29007;DHT22;16104;48.642;9.008;2022-09-03T14:05:45;23.60;56.90
29007;DHT22;16104;48.642;9.008;2022-09-03T14:16:28;24.40;56.80
29007;DHT22;16104;48.642;9.008;2022-09-03T14:21:29;24.70;56.20
29007;DHT22;16104;48.642;9.008;2022-09-03T14:26:34;25.00;55.40
29007;DHT22;16104;48.642;9.008;2022-09-03T15:13:22;25.90;52.10
29007;DHT22;16104;48.642;9.008;2022-09-03T15:18:31;26.00;52.70
29007;DHT22;16104;48.642;9.008;2022-09-03T15:39:21;26.50;51.40
29007;DHT22;16104;48.642;9.008;2022-09-03T15:44:18;26.40;51.30
29007;DHT22;16104;48.642;9.008;2022-09-03T15:54:52;26.40;51.80
29007;DHT22;16104;48.642;9.008;2022-09-03T15:59:58;26.40;51.40
29007;DHT22;16104;48.642;9.008;2022-09-03T16:10:11;26.50;51.20
29007;DHT22;16104;48.642;9.008;2022-09-03T16:15:11;26.60;50.70
29007;DHT22;16104;48.642;9.008;2022-09-03T16:20:24;26.60;50.80
29007;DHT22;16104;48.642;9.008;2022-09-03T16:25:27;26.60;50.80
29007;DHT22;16104;48.642;9.008;2022-09-03T16:35:49;26.30;51.00
29007;DHT22;16104;48.642;9.008;2022-09-03T16:41:02;26.30;51.20
29007;DHT22;16104;48.642;9.008;2022-09-03T16:46:16;26.20;51.30
29007;DHT22;16104;48.642;9.008;2022-09-03T16:51:31;26.20;51.20
29007;DHT22;16104;48.642;9.008;2022-09-03T17:07:16;26.00;51.60
29007;DHT22;16104;48.642;9.008;2022-09-03T17:12:35;26.00;51.40
29007;DHT22;16104;48.642;9.008;2022-09-03T17:18:04;25.90;51.60
29007;DHT22;16104;48.642;9.008;2022-09-03T17:34:15;25.50;52.00
29007;DHT22;16104;48.642;9.008;2022-09-03T17:44:58;25.20;52.40
29007;DHT22;16104;48.642;9.008;2022-09-03T17:55:30;24.90;52.70
29007;DHT22;16104;48.642;9.008;2022-09-03T18:00:42;24.70;53.30
29007;DHT22;16104;48.642;9.008;2022-09-03T18:05:48;24.50;53.50
29007;DHT22;16104;48.642;9.008;2022-09-03T18:16:23;24.20;54.30
29007;DHT22;16104;48.642;9.008;2022-09-03T18:21:23;24.00;54.40
29007;DHT22;16104;48.642;9.008;2022-09-03T18:26:48;23.90;54.50
29007;DHT22;16104;48.642;9.008;2022-09-03T18:32:04;23.70;55.10
29007;DHT22;16104;48.642;9.008;2022-09-03T18:37:24;23.60;55.20
29007;DHT22;16104;48.642;9.008;2022-09-03T18:43:03;23.50;55.30
29007;DHT22;16104;48.642;9.008;2022-09-03T19:05:24;23.00;56.00
29007;DHT22;16104;48.642;9.008;2022-09-03T19:10:52;23.00;56.40
29007;DHT22;16104;48.642;9.008;2022-09-03T19:16:18;22.80;56.90
29007;DHT22;16104;48.642;9.008;2022-09-03T19:21:38;22.80;57.00
29007;DHT22;16104;48.642;9.008;2022-09-03T19:33:09;22.50;57.70
29007;DHT22;16104;48.642;9.008;2022-09-03T19:38:23;22.40;58.20
29007;DHT22;16104;48.642;9.008;2022-09-03T19:54:37;22.00;58.70
29007;DHT22;16104;48.642;9.008;2022-09-03T19:59:52;21.90;59.40
29007;DHT22;16104;48.642;9.008;2022-09-03T20:05:10;21.80;58.50
29007;DHT22;16104;48.642;9.008;2022-09-03T20:10:26;21.70;59.00
29007;DHT22;16104;48.642;9.008;2022-09-03T20:15:26;21.70;59.20
29007;DHT22;16104;48.642;9.008;2022-09-03T20:20:33;21.60;60.10
29007;DHT22;16104;48.642;9.008;2022-09-03T20:31:20;21.40;61.20
29007;DHT22;16104;48.642;9.008;2022-09-03T20:36:32;21.30;61.30
29007;DHT22;16104;48.642;9.008;2022-09-03T20:47:04;21.20;62.00
29007;DHT22;16104;48.642;9.008;2022-09-03T20:57:11;21.10;61.60
29007;DHT22;16104;48.642;9.008;2022-09-03T21:18:33;21.00;63.70
29007;DHT22;16104;48.642;9.008;2022-09-03T21:23:35;20.90;63.60
29007;DHT22;16104;48.642;9.008;2022-09-03T21:28:37;20.90;63.20
29007;DHT22;16104;48.642;9.008;2022-09-03T21:33:37;20.90;64.00
29007;DHT22;16104;48.642;9.008;2022-09-03T21:38:35;20.90;64.00
29007;DHT22;16104;48.642;9.008;2022-09-03T21:43:37;20.90;63.50
29007;DHT22;16104;48.642;9.008;2022-09-03T21:48:41;20.90;63.50
29007;DHT22;16104;48.642;9.008;2022-09-03T21:53:45;20.90;63.40
29007;DHT22;16104;48.642;9.008;2022-09-03T22:04:06;20.80;63.00
29007;DHT22;16104;48.642;9.008;2022-09-03T22:09:08;20.70;62.40
29007;DHT22;16104;48.642;9.008;2022-09-03T22:14:12;20.70;62.70
29007;DHT22;16104;48.642;9.008;2022-09-03T22:19:09;20.60;62.90
29007;DHT22;16104;48.642;9.008;2022-09-03T22:24:19;20.50;62.40
29007;DHT22;16104;48.642;9.008;2022-09-03T22:34:55;20.40;62.60
29007;DHT22;16104;48.642;9.008;2022-09-03T22:40:08;20.30;63.10
29007;DHT22;16104;48.642;9.008;2022-09-03T22:45:11;20.30;63.20
29007;DHT22;16104;48.642;9.008;2022-09-03T22:50:34;20.30;62.70
29007;DHT22;16104;48.642;9.008;2022-09-03T22:55:31;20.20;64.20
29007;DHT22;16104;48.642;9.008;2022-09-03T23:00:32;20.20;63.70
29007;DHT22;16104;48.642;9.008;2022-09-03T23:05:35;20.10;63.90
29007;DHT22;16104;48.642;9.008;2022-09-03T23:10:39;20.10;63.00
29007;DHT22;16104;48.642;9.008;2022-09-03T23:15:37;20.00;63.50
29007;DHT22;16104;48.642;9.008;2022-09-03T23:20:37;20.00;63.50
29007;DHT22;16104;48.642;9.008;2022-09-03T23:25:38;19.90;63.50
29007;DHT22;16104;48.642;9.008;2022-09-03T23:30:36;19.90;63.80
29007;DHT22;16104;48.642;9.008;2022-09-03T23:36:03;19.80;63.70
29007;DHT22;16104;48.642;9.008;2022-09-03T23:41:00;19.80;64.20
29007;DHT22;16104;48.642;9.008;2022-09-03T23:46:12;19.70;64.30
29007;DHT22;16104;48.642;9.008;2022-09-03T23:56:51;19.70;64.10
